createdAt,value
2023-05-06T00:00:56.528Z,5.45
2023-05-06T00:03:23.014Z,3.88
2023-05-06T00:05:49.633Z,3.58
2023-05-06T00:08:16.300Z,3.10
2023-05-06T00:10:42.718Z,3.20
2023-05-06T00:13:09.213Z,3.65
2023-05-06T00:15:36.305Z,5.38
2023-05-06T00:18:02.816Z,5.47
2023-05-06T00:20:29.331Z,4.10
2023-05-06T00:22:55.830Z,5.07
2023-05-06T00:25:22.224Z,5.22
2023-05-06T00:27:48.636Z,4.75
2023-05-06T00:30:15.108Z,4.97
2023-05-06T00:32:41.630Z,3.88
2023-05-06T00:35:09.067Z,4.35
2023-05-06T00:37:35.705Z,7.53
2023-05-06T00:40:03.382Z,4.68
2023-05-06T00:42:29.777Z,5.88
2023-05-06T00:44:56.180Z,4.72
2023-05-06T00:47:22.751Z,5.78
2023-05-06T00:49:49.147Z,4.88
2023-05-06T00:52:15.589Z,6.30
2023-05-06T00:54:42.094Z,5.13
2023-05-06T00:57:08.516Z,4.30
2023-05-06T00:59:34.934Z,4.88
2023-05-06T01:02:01.487Z,4.38
2023-05-06T01:04:28.955Z,4.38
2023-05-06T01:06:58.566Z,4.50
2023-05-06T01:09:29.752Z,5.97
2023-05-06T01:12:21.172Z,6.10
2023-05-06T01:14:59.527Z,3.90
2023-05-06T01:17:27.889Z,6.20
2023-05-06T01:19:58.323Z,5.50
2023-05-06T01:22:24.927Z,4.78
2023-05-06T01:24:51.456Z,3.65
2023-05-06T01:27:18.214Z,4.97
2023-05-06T01:29:45.310Z,4.57
2023-05-06T01:32:45.699Z,5.85
2023-05-06T01:35:20.488Z,3.70
2023-05-06T01:38:00.191Z,3.78
2023-05-06T01:40:27.603Z,4.95
2023-05-06T01:42:54.055Z,4.15
2023-05-06T01:45:20.852Z,4.43
2023-05-06T01:47:47.400Z,4.53
2023-05-06T01:50:13.870Z,5.30
2023-05-06T01:52:40.275Z,5.25
2023-05-06T01:55:07.415Z,4.18
2023-05-06T01:57:34.206Z,3.85
2023-05-06T02:00:00.642Z,4.30
2023-05-06T02:02:27.133Z,3.78
2023-05-06T02:04:53.822Z,4.22
2023-05-06T02:07:20.267Z,4.68
2023-05-06T02:09:46.677Z,3.35
2023-05-06T02:12:13.083Z,5.22
2023-05-06T02:14:39.489Z,5.32
2023-05-06T02:17:05.975Z,3.72
2023-05-06T02:19:32.452Z,3.75
2023-05-06T02:21:58.856Z,4.00
2023-05-06T02:24:26.122Z,3.22
2023-05-06T02:26:52.533Z,4.93
2023-05-06T02:29:18.930Z,3.72
2023-05-06T02:31:45.448Z,4.65
2023-05-06T02:34:11.890Z,3.55
2023-05-06T02:36:38.348Z,5.13
2023-05-06T02:39:04.763Z,7.75
2023-05-06T02:41:31.199Z,5.65
2023-05-06T02:43:57.605Z,4.72
2023-05-06T02:46:24.073Z,4.20
2023-05-06T02:48:50.535Z,4.45
2023-05-06T02:51:17.020Z,4.28
2023-05-06T02:53:43.413Z,3.17
2023-05-06T02:56:09.806Z,3.70
2023-05-06T02:58:36.216Z,3.85
2023-05-06T03:01:02.706Z,3.20
2023-05-06T03:03:29.199Z,4.57
2023-05-06T03:05:55.627Z,3.92
2023-05-06T03:08:22.021Z,4.68
2023-05-06T03:10:48.476Z,4.32
2023-05-06T03:13:15.037Z,3.38
2023-05-06T03:15:41.618Z,4.25
2023-05-06T03:18:08.109Z,4.38
2023-05-06T03:20:34.618Z,3.40
2023-05-06T03:23:01.391Z,4.50
2023-05-06T03:25:27.814Z,3.88
2023-05-06T03:27:54.255Z,3.08
2023-05-06T03:30:20.888Z,4.18
2023-05-06T03:32:47.359Z,3.75
2023-05-06T03:35:13.820Z,4.35
2023-05-06T03:37:40.385Z,5.85
2023-05-06T03:40:07.733Z,4.15
2023-05-06T03:42:34.154Z,4.03
2023-05-06T03:45:00.622Z,3.10
2023-05-06T03:47:27.103Z,5.00
2023-05-06T03:49:53.745Z,4.18
2023-05-06T03:52:20.172Z,3.05
2023-05-06T03:54:46.561Z,3.40
2023-05-06T03:57:13.034Z,4.38
2023-05-06T03:59:39.461Z,3.20
2023-05-06T04:02:06.017Z,3.25
2023-05-06T04:04:32.464Z,5.00
2023-05-06T04:06:58.876Z,3.35
2023-05-06T04:09:25.295Z,3.83
2023-05-06T04:11:51.746Z,4.82
2023-05-06T04:14:18.186Z,3.80
2023-05-06T04:16:44.594Z,3.35
2023-05-06T04:19:11.033Z,4.65
2023-05-06T04:21:37.488Z,3.80
2023-05-06T04:24:04.109Z,4.10
2023-05-06T04:26:31.365Z,3.85
2023-05-06T04:28:57.760Z,3.42
2023-05-06T04:31:24.201Z,4.28
2023-05-06T04:33:50.658Z,3.72
2023-05-06T04:36:17.216Z,3.92
2023-05-06T04:38:43.659Z,3.50
2023-05-06T04:41:10.065Z,3.05
2023-05-06T04:43:36.487Z,5.72
2023-05-06T04:46:03.176Z,3.92
2023-05-06T04:48:29.627Z,3.75
2023-05-06T04:50:56.123Z,3.10
2023-05-06T04:53:22.560Z,3.80
2023-05-06T04:55:48.985Z,3.60
2023-05-06T04:58:15.557Z,5.97
2023-05-06T05:00:41.971Z,3.45
2023-05-06T05:03:08.506Z,3.05
2023-05-06T05:05:35.056Z,3.55
2023-05-06T05:08:01.510Z,3.60
2023-05-06T05:10:27.945Z,3.53
2023-05-06T05:12:54.455Z,5.00
2023-05-06T05:15:21.166Z,2.95
2023-05-06T05:17:47.828Z,3.20
2023-05-06T05:20:14.371Z,3.15
2023-05-06T05:22:40.899Z,3.15
2023-05-06T05:25:08.576Z,5.25
2023-05-06T05:27:35.243Z,3.10
2023-05-06T05:30:01.661Z,2.67
2023-05-06T05:32:28.136Z,3.05
2023-05-06T05:34:54.632Z,4.32
2023-05-06T05:37:21.038Z,4.75
2023-05-06T05:39:47.679Z,5.22
2023-05-06T05:42:14.086Z,3.80
2023-05-06T05:44:40.707Z,3.50
2023-05-06T05:47:07.277Z,4.65
2023-05-06T05:49:33.741Z,5.82
2023-05-06T05:52:00.311Z,4.35
2023-05-06T05:54:26.782Z,4.32
2023-05-06T05:56:53.453Z,3.15
2023-05-06T05:59:20.027Z,4.80
2023-05-06T06:01:46.718Z,3.85
2023-05-06T06:04:13.276Z,3.58
2023-05-06T06:06:39.777Z,3.03
2023-05-06T06:09:06.470Z,3.58
2023-05-06T06:11:39.542Z,3.65
2023-05-06T06:14:05.982Z,3.45
2023-05-06T06:16:32.759Z,4.18
2023-05-06T06:18:59.302Z,3.50
2023-05-06T06:21:25.822Z,3.58
2023-05-06T06:23:52.261Z,3.47
2023-05-06T06:26:18.680Z,3.63
2023-05-06T06:28:45.297Z,3.60
2023-05-06T06:31:11.786Z,3.65
2023-05-06T06:33:38.437Z,3.75
2023-05-06T06:36:05.526Z,3.75
2023-05-06T06:38:31.965Z,4.40
2023-05-06T06:40:58.573Z,3.95
2023-05-06T06:43:25.247Z,2.85
2023-05-06T06:45:51.913Z,5.43
2023-05-06T06:48:19.118Z,3.75
2023-05-06T06:50:45.707Z,2.60
2023-05-06T06:53:12.157Z,3.22
2023-05-06T06:55:38.782Z,3.95
2023-05-06T06:58:05.277Z,4.80
2023-05-06T07:00:31.755Z,3.33
2023-05-06T07:02:58.460Z,3.28
2023-05-06T07:05:27.014Z,3.30
2023-05-06T07:07:53.554Z,2.78
2023-05-06T07:10:20.001Z,2.83
2023-05-06T07:12:46.617Z,3.75
2023-05-06T07:15:13.351Z,4.15
2023-05-06T07:17:40.197Z,5.00
2023-05-06T07:20:07.281Z,3.58
2023-05-06T07:22:33.945Z,4.32
2023-05-06T07:25:00.568Z,3.65
2023-05-06T07:27:30.193Z,3.30
2023-05-06T07:29:56.821Z,3.40
2023-05-06T07:32:23.304Z,4.70
2023-05-06T07:34:49.791Z,5.13
2023-05-06T07:37:16.242Z,6.53
2023-05-06T07:39:43.134Z,4.32
2023-05-06T07:42:12.938Z,3.28
2023-05-06T07:44:39.794Z,3.97
2023-05-06T07:47:06.361Z,5.97
2023-05-06T07:49:34.198Z,5.95
2023-05-06T07:52:00.730Z,2.95
2023-05-06T07:54:27.307Z,2.92
2023-05-06T07:56:53.902Z,2.85
2023-05-06T07:59:20.369Z,2.50
2023-05-06T08:01:46.891Z,5.50
2023-05-06T08:04:13.600Z,5.70
2023-05-06T08:06:40.275Z,2.65
2023-05-06T08:09:06.729Z,3.83
2023-05-06T08:11:33.308Z,3.20
2023-05-06T08:13:59.985Z,2.95
2023-05-06T08:16:26.544Z,2.30
2023-05-06T08:18:53.020Z,2.45
2023-05-06T08:21:19.435Z,2.70
2023-05-06T08:23:46.285Z,4.53
2023-05-06T08:26:12.892Z,2.85
2023-05-06T08:28:39.376Z,2.90
2023-05-06T08:31:05.856Z,2.63
2023-05-06T08:33:32.365Z,2.20
2023-05-06T08:35:58.968Z,2.55
2023-05-06T08:38:26.025Z,2.67
2023-05-06T08:40:52.893Z,2.85
2023-05-06T08:43:20.888Z,2.25
2023-05-06T08:45:47.367Z,2.60
2023-05-06T08:48:13.893Z,4.25
2023-05-06T08:50:43.644Z,2.65
2023-05-06T08:53:11.725Z,2.38
2023-05-06T08:58:06.481Z,2.78
2023-05-06T09:02:59.369Z,4.13
2023-05-06T09:05:25.880Z,1.75
2023-05-06T09:07:52.727Z,2.72
2023-05-06T09:10:19.441Z,3.10
2023-05-06T09:12:45.973Z,2.63
2023-05-06T09:15:12.861Z,2.45
2023-05-06T09:17:39.566Z,2.97
2023-05-06T09:20:09.086Z,2.95
2023-05-06T09:22:37.247Z,3.03
2023-05-06T09:25:03.984Z,1.83
2023-05-06T09:27:31.950Z,3.22
2023-05-06T09:30:09.440Z,3.67
2023-05-06T09:32:38.297Z,3.55
2023-05-06T09:35:07.218Z,4.55
2023-05-06T09:37:33.706Z,2.60
2023-05-06T09:40:00.809Z,1.92
2023-05-06T09:42:28.663Z,2.95
2023-05-06T09:44:56.372Z,4.07
2023-05-06T09:47:24.103Z,2.95
2023-05-06T09:49:50.726Z,2.03
2023-05-06T09:52:19.478Z,3.72
2023-05-06T09:54:46.768Z,2.30
2023-05-06T09:57:13.931Z,2.58
2023-05-06T09:59:41.007Z,2.53
2023-05-06T10:02:07.508Z,4.15
2023-05-06T10:04:34.448Z,4.78
2023-05-06T10:07:01.010Z,2.78
2023-05-06T10:09:27.575Z,2.70
2023-05-06T10:11:54.067Z,4.05
2023-05-06T10:14:20.567Z,4.78
2023-05-06T10:16:47.919Z,2.75
2023-05-06T10:19:15.643Z,2.88
2023-05-06T10:21:43.334Z,2.63
2023-05-06T10:24:11.531Z,2.42
2023-05-06T10:26:38.432Z,4.70
2023-05-06T10:29:05.180Z,3.70
2023-05-06T10:31:31.634Z,3.83
2023-05-06T10:33:58.405Z,3.33
2023-05-06T10:36:25.890Z,4.55
2023-05-06T10:38:57.200Z,3.88
2023-05-06T10:41:25.911Z,2.33
2023-05-06T10:43:56.708Z,2.80
2023-05-06T10:46:24.278Z,5.30
2023-05-06T10:49:12.005Z,2.72
2023-05-06T10:51:38.609Z,5.22
2023-05-06T10:54:06.918Z,3.28
2023-05-06T10:56:34.838Z,2.17
2023-05-06T10:59:04.135Z,2.58
2023-05-06T11:01:30.759Z,2.38
2023-05-06T11:03:57.461Z,3.72
2023-05-06T11:06:36.876Z,2.97
2023-05-06T11:09:04.287Z,3.55
2023-05-06T11:11:51.079Z,2.97
2023-05-06T11:14:31.355Z,3.15
2023-05-06T11:16:59.022Z,3.25
2023-05-06T11:19:30.140Z,2.72
2023-05-06T11:21:58.396Z,4.30
2023-05-06T11:24:28.228Z,4.68
2023-05-06T11:26:58.824Z,3.50
2023-05-06T11:29:25.331Z,5.40
2023-05-06T11:31:52.803Z,3.53
2023-05-06T11:34:24.955Z,3.05
2023-05-06T11:37:12.674Z,3.55
2023-05-06T11:39:40.924Z,3.45
2023-05-06T11:42:08.434Z,2.92
2023-05-06T11:44:36.752Z,2.60
2023-05-06T11:47:05.678Z,5.22
2023-05-06T11:49:55.955Z,3.45
2023-05-06T11:52:22.388Z,4.97
2023-05-06T11:54:50.986Z,2.97
2023-05-06T11:57:17.420Z,2.88
2023-05-06T11:59:43.880Z,5.32
2023-05-06T12:02:14.149Z,4.03
2023-05-06T12:04:48.045Z,3.47
2023-05-06T12:07:15.109Z,2.90
2023-05-06T12:09:48.872Z,3.00
2023-05-06T12:12:16.871Z,2.28
2023-05-06T12:14:43.311Z,4.95
2023-05-06T12:17:09.719Z,2.70
2023-05-06T12:19:36.155Z,2.22
2023-05-06T12:22:16.192Z,4.07
2023-05-06T12:24:42.718Z,2.42
2023-05-06T12:27:09.152Z,2.80
2023-05-06T12:29:35.785Z,4.85
2023-05-06T12:32:09.392Z,4.55
2023-05-06T12:34:39.969Z,3.63
2023-05-06T12:37:07.166Z,3.75
2023-05-06T12:39:37.618Z,2.47
2023-05-06T12:42:04.287Z,6.68
2023-05-06T12:44:40.221Z,2.83
2023-05-06T12:47:19.185Z,2.60
2023-05-06T12:49:48.664Z,2.38
2023-05-06T12:52:15.249Z,3.25
2023-05-06T12:54:41.800Z,3.67
2023-05-06T12:57:08.204Z,3.83
2023-05-06T12:59:35.852Z,3.28
2023-05-06T13:02:02.759Z,3.13
2023-05-06T13:04:29.261Z,2.22
2023-05-06T13:06:56.999Z,2.10
2023-05-06T13:09:23.546Z,3.60
2023-05-06T13:11:50.251Z,2.00
2023-05-06T13:14:17.989Z,2.55
2023-05-06T13:16:44.631Z,3.53
2023-05-06T13:19:21.134Z,3.47
2023-05-06T13:21:51.681Z,2.97
2023-05-06T13:24:18.110Z,3.90
2023-05-06T13:26:44.538Z,3.00
2023-05-06T13:29:11.214Z,3.25
2023-05-06T13:31:37.762Z,2.30
2023-05-06T13:34:04.415Z,3.08
2023-05-06T13:36:31.120Z,4.35
2023-05-06T13:38:57.597Z,10.30
2023-05-06T13:41:25.224Z,9.45
2023-05-06T13:43:52.133Z,5.05
2023-05-06T13:46:18.656Z,3.53
2023-05-06T13:48:45.117Z,3.35
2023-05-06T13:51:11.561Z,3.03
2023-05-06T13:53:39.336Z,5.25
2023-05-06T13:56:05.921Z,4.85
2023-05-06T13:58:32.450Z,3.58
2023-05-06T14:00:58.901Z,2.17
2023-05-06T14:03:25.388Z,4.45
2023-05-06T14:05:52.020Z,3.65
2023-05-06T14:08:18.449Z,2.85
2023-05-06T14:10:45.086Z,3.33
2023-05-06T14:13:11.758Z,3.80
2023-05-06T14:15:38.218Z,3.22
2023-05-06T14:18:04.855Z,3.03
2023-05-06T14:20:31.316Z,3.20
2023-05-06T14:22:57.973Z,2.15
2023-05-06T14:25:27.678Z,4.00
2023-05-06T14:27:54.680Z,2.75
2023-05-06T14:30:21.387Z,2.47
2023-05-06T14:32:47.822Z,3.42
2023-05-06T14:35:14.453Z,2.58
2023-05-06T14:37:40.910Z,3.75
2023-05-06T14:40:07.973Z,3.40
2023-05-06T14:42:35.843Z,4.53
2023-05-06T14:45:02.460Z,3.03
2023-05-06T14:47:29.006Z,4.80
2023-05-06T14:49:55.488Z,3.30
2023-05-06T14:52:21.970Z,2.63
2023-05-06T14:54:48.429Z,3.45
2023-05-06T14:57:14.863Z,2.45
2023-05-06T14:59:41.300Z,3.17
2023-05-06T15:02:08.608Z,2.80
2023-05-06T15:04:35.263Z,2.33
2023-05-06T15:07:02.114Z,3.88
2023-05-06T15:09:28.583Z,3.05
2023-05-06T15:11:55.035Z,4.05
2023-05-06T15:14:21.454Z,4.38
2023-05-06T15:16:47.937Z,6.68
2023-05-06T15:19:14.430Z,5.97
2023-05-06T15:21:41.064Z,3.40
2023-05-06T15:24:08.073Z,4.20
2023-05-06T15:26:34.710Z,3.53
2023-05-06T15:29:01.192Z,4.32
2023-05-06T15:31:27.859Z,5.68
2023-05-06T15:33:54.397Z,5.25
2023-05-06T15:36:20.873Z,5.93
2023-05-06T15:38:53.360Z,4.68
2023-05-06T15:41:19.881Z,4.28
2023-05-06T15:43:46.908Z,6.53
2023-05-06T15:46:13.397Z,3.83
2023-05-06T15:48:39.884Z,7.13
2023-05-06T15:51:06.369Z,5.25
2023-05-06T15:53:32.884Z,9.23
2023-05-06T15:56:13.127Z,7.25
2023-05-06T15:58:41.661Z,5.25
2023-05-06T16:01:08.992Z,9.15
2023-05-06T16:03:36.657Z,5.75
2023-05-06T16:06:03.924Z,5.93
2023-05-06T16:08:30.544Z,5.63
2023-05-06T16:10:57.200Z,5.85
2023-05-06T16:13:23.850Z,6.97
2023-05-06T16:15:50.608Z,5.50
2023-05-06T16:18:17.305Z,9.13
2023-05-06T16:20:43.968Z,5.70
2023-05-06T16:23:10.453Z,5.78
2023-05-06T16:25:38.245Z,6.60
2023-05-06T16:28:05.622Z,11.65
2023-05-06T16:30:32.219Z,8.40
2023-05-06T16:32:58.880Z,10.77
2023-05-06T16:35:25.430Z,9.45
2023-05-06T16:37:51.995Z,28.48
2023-05-06T16:40:20.495Z,21.08
2023-05-06T16:42:50.205Z,34.72
2023-05-06T16:45:16.768Z,10.77
2023-05-06T16:47:43.473Z,8.77
2023-05-06T16:50:11.252Z,5.97
2023-05-06T16:52:37.835Z,7.50
2023-05-06T16:55:04.592Z,18.85
2023-05-06T16:57:31.076Z,8.63
2023-05-06T16:59:57.753Z,8.95
2023-05-06T17:02:24.306Z,8.57
2023-05-06T17:04:51.938Z,9.15
2023-05-06T17:07:18.379Z,5.05
2023-05-06T17:09:44.811Z,8.02
2023-05-06T17:12:11.257Z,6.63
2023-05-06T17:14:37.711Z,6.88
2023-05-06T17:17:05.258Z,9.13
2023-05-06T17:19:32.015Z,7.32
2023-05-06T17:21:58.465Z,7.28
2023-05-06T17:24:24.913Z,4.00
2023-05-06T17:26:51.327Z,5.57
2023-05-06T17:29:17.816Z,5.38
2023-05-06T17:31:44.239Z,4.78
2023-05-06T17:34:10.828Z,4.40
2023-05-06T17:36:37.347Z,4.43
2023-05-06T17:39:04.688Z,3.30
2023-05-06T17:41:31.637Z,4.10
2023-05-06T17:43:58.097Z,5.28
2023-05-06T17:46:24.681Z,3.85
2023-05-06T17:48:51.131Z,4.75
2023-05-06T17:51:18.274Z,4.13
2023-05-06T17:53:45.053Z,3.45
2023-05-06T17:56:11.551Z,3.00
2023-05-06T17:58:38.047Z,7.57
2023-05-06T18:01:04.485Z,4.45
2023-05-06T18:03:31.045Z,4.57
2023-05-06T18:05:58.305Z,3.92
2023-05-06T18:08:24.766Z,3.35
2023-05-06T18:10:51.275Z,4.13
2023-05-06T18:13:17.743Z,5.70
2023-05-06T18:15:44.307Z,4.85
2023-05-06T18:18:10.831Z,5.13
2023-05-06T18:20:37.328Z,7.10
2023-05-06T18:23:03.734Z,3.60
2023-05-06T18:25:30.194Z,4.60
2023-05-06T18:27:56.864Z,3.15
2023-05-06T18:30:23.587Z,2.50
2023-05-06T18:32:51.784Z,3.55
2023-05-06T18:35:19.660Z,3.38
2023-05-06T18:37:46.345Z,3.38
2023-05-06T18:40:14.350Z,4.03
2023-05-06T18:42:41.434Z,2.85
2023-05-06T18:45:08.475Z,6.45
2023-05-06T18:47:36.927Z,2.58
2023-05-06T18:50:03.729Z,3.38
2023-05-06T18:52:30.259Z,2.72
2023-05-06T18:54:56.661Z,2.53
2023-05-06T18:57:24.230Z,4.18
2023-05-06T18:59:50.906Z,3.00
2023-05-06T19:02:17.312Z,3.35
2023-05-06T19:04:43.826Z,3.47
2023-05-06T19:07:11.068Z,3.75
2023-05-06T19:09:37.534Z,2.70
2023-05-06T19:12:04.268Z,3.00
2023-05-06T19:14:32.295Z,2.15
2023-05-06T19:16:58.905Z,2.10
2023-05-06T19:19:25.583Z,2.20
2023-05-06T19:21:52.048Z,2.55
2023-05-06T19:24:18.468Z,2.22
2023-05-06T19:26:45.112Z,3.55
2023-05-06T19:29:11.624Z,2.75
2023-05-06T19:31:38.193Z,2.95
2023-05-06T19:34:04.709Z,2.60
2023-05-06T19:36:31.632Z,2.47
2023-05-06T19:38:58.226Z,1.73
2023-05-06T19:41:24.796Z,3.67
2023-05-06T19:43:53.114Z,3.38
2023-05-06T19:46:19.605Z,2.00
2023-05-06T19:48:46.305Z,2.63
2023-05-06T19:51:12.929Z,3.10
2023-05-06T19:53:39.341Z,4.60
2023-05-06T19:56:12.078Z,1.85
2023-05-06T19:58:38.882Z,2.83
2023-05-06T20:01:05.489Z,2.58
2023-05-06T20:03:32.279Z,3.17
2023-05-06T20:05:58.990Z,2.45
2023-05-06T20:08:25.915Z,2.50
2023-05-06T20:10:52.363Z,3.33
2023-05-06T20:13:18.879Z,2.65
2023-05-06T20:15:45.738Z,1.48
2023-05-06T20:18:12.475Z,2.70
2023-05-06T20:20:39.780Z,2.88
2023-05-06T20:23:06.211Z,1.83
2023-05-06T20:25:32.770Z,2.70
2023-05-06T20:27:59.351Z,3.05
2023-05-06T20:30:26.374Z,2.80
2023-05-06T20:32:52.877Z,2.40
2023-05-06T20:35:19.398Z,4.80
2023-05-06T20:37:45.882Z,4.32
2023-05-06T20:40:12.803Z,2.35
2023-05-06T20:42:39.435Z,2.78
2023-05-06T20:45:06.436Z,1.98
2023-05-06T20:47:36.528Z,3.65
2023-05-06T20:50:03.172Z,2.17
2023-05-06T20:52:29.835Z,3.13
2023-05-06T20:54:56.486Z,3.42
2023-05-06T20:57:23.217Z,2.25
2023-05-06T20:59:51.022Z,2.10
2023-05-06T21:02:17.548Z,3.17
2023-05-06T21:04:43.976Z,2.25
2023-05-06T21:07:10.403Z,3.33
2023-05-06T21:09:38.045Z,3.78
2023-05-06T21:12:04.787Z,3.92
2023-05-06T21:14:31.456Z,2.47
2023-05-06T21:16:57.901Z,3.22
2023-05-06T21:19:24.437Z,2.90
2023-05-06T21:21:51.318Z,2.53
2023-05-06T21:24:17.813Z,1.90
2023-05-06T21:26:44.270Z,2.45
2023-05-06T21:29:10.696Z,3.40
2023-05-06T21:31:37.254Z,3.60
2023-05-06T21:34:07.168Z,2.60
2023-05-06T21:39:05.786Z,2.50
2023-05-06T21:41:34.203Z,3.80
2023-05-06T21:44:00.634Z,3.17
2023-05-06T21:46:27.095Z,3.33
2023-05-06T21:48:53.525Z,2.95
2023-05-06T21:51:19.938Z,2.95
2023-05-06T21:53:50.052Z,2.33
2023-05-06T21:56:17.470Z,2.08
2023-05-06T21:58:44.044Z,2.10
2023-05-06T22:01:10.485Z,1.75
2023-05-06T22:03:37.038Z,1.60
2023-05-06T22:06:04.252Z,3.05
2023-05-06T22:08:30.692Z,2.95
2023-05-06T22:10:57.858Z,2.08
2023-05-06T22:13:26.461Z,1.92
2023-05-06T22:15:53.264Z,2.15
2023-05-06T22:18:19.783Z,1.75
2023-05-06T22:20:46.628Z,3.85
2023-05-06T22:23:13.359Z,2.10
2023-05-06T22:25:39.775Z,2.38
2023-05-06T22:28:06.284Z,1.65
2023-05-06T22:30:32.690Z,1.85
2023-05-06T22:32:59.144Z,2.85
2023-05-06T22:35:25.698Z,2.90
2023-05-06T22:37:52.172Z,2.28
2023-05-06T22:40:18.612Z,2.35
2023-05-06T22:42:45.040Z,1.80
2023-05-06T22:45:11.710Z,2.22
2023-05-06T22:47:38.516Z,1.50
2023-05-06T22:50:06.610Z,2.15
2023-05-06T22:52:33.097Z,2.22
2023-05-06T22:54:59.602Z,2.17
2023-05-06T22:57:26.225Z,2.63
2023-05-06T22:59:52.696Z,2.00
2023-05-06T23:02:19.407Z,1.90
2023-05-06T23:04:45.816Z,2.80
2023-05-06T23:07:13.720Z,2.17
2023-05-06T23:09:40.286Z,1.85
2023-05-06T23:12:06.816Z,2.47
2023-05-06T23:14:33.259Z,1.70
2023-05-06T23:16:59.706Z,2.42
2023-05-06T23:19:26.832Z,2.25
2023-05-06T23:21:53.235Z,2.92
2023-05-06T23:24:19.638Z,2.20
2023-05-06T23:26:46.034Z,2.85
2023-05-06T23:29:12.466Z,1.80
2023-05-06T23:31:38.898Z,1.85
2023-05-06T23:34:05.288Z,2.88
2023-05-06T23:36:31.703Z,1.88
2023-05-06T23:38:58.158Z,1.90
2023-05-06T23:41:24.578Z,2.40
2023-05-06T23:43:51.098Z,2.42
2023-05-06T23:46:17.511Z,1.95
2023-05-06T23:48:43.984Z,2.00
2023-05-06T23:51:10.551Z,1.60
2023-05-06T23:53:37.198Z,1.70
2023-05-06T23:56:03.813Z,1.77
2023-05-06T23:58:30.226Z,1.60
